Time;durP1;ratioP1;P1;durP2;ratioP2;P2;SDS_P1;SDS_P2;PMS_P1;PMS_P2;Temp;Humidity;BMP_temperature;BMP_pressure;BME280_temperature;BME280_humidity;BME280_pressure;Samples;Min_cycle;Max_cycle;Signal;HPM_P1;HPM_P2
2021/05/09 00:00:03;;;;;;;7.88;4.00;;;11.70;99.90;;;;;;5034492;28;20026;-63
2021/05/09 00:03:06;;;;;;;8.77;4.88;;;11.80;99.90;;;;;;5034530;28;20033;-63
2021/05/09 00:05:32;;;;;;;11.07;5.00;;;11.80;99.90;;;;;;5034236;28;20060;-63
2021/05/09 00:07:59;;;;;;;7.22;4.15;;;11.70;99.90;;;;;;5016825;28;20029;-63
2021/05/09 00:10:25;;;;;;;7.20;4.03;;;11.60;99.90;;;;;;5033314;28;20034;-63
2021/05/09 00:12:51;;;;;;;8.00;4.75;;;11.50;99.90;;;;;;5034352;28;20467;-63
2021/05/09 00:15:22;;;;;;;11.63;5.38;;;10.80;99.90;;;;;;5016255;28;20087;-64
2021/05/09 00:17:48;;;;;;;;;;;10.60;99.90;;;;;;5017014;28;20112;-64
2021/05/09 00:20:14;;;;;;;11.80;5.07;;;10.50;99.90;;;;;;5033955;28;20000;-64
2021/05/09 00:22:40;;;;;;;9.25;4.90;;;10.30;99.90;;;;;;5033867;28;20073;-64
2021/05/09 00:25:07;;;;;;;10.25;5.82;;;10.10;99.90;;;;;;5034001;28;20040;-64
2021/05/09 00:27:33;;;;;;;15.55;5.45;;;10.30;99.90;;;;;;5016288;28;20037;-63
2021/05/09 00:29:59;;;;;;;11.68;5.80;;;10.40;99.90;;;;;;5033845;28;20589;-63
2021/05/09 00:32:24;;;;;;;8.40;5.10;;;10.40;99.90;;;;;;5033863;28;20116;-64
2021/05/09 00:34:50;;;;;;;12.55;5.65;;;10.50;99.90;;;;;;5034095;28;20033;-64
2021/05/09 00:37:16;;;;;;;12.00;5.65;;;10.60;99.90;;;;;;5033407;28;20037;-64
2021/05/09 00:39:44;;;;;;;10.77;5.95;;;10.60;99.90;;;;;;4999668;28;20029;-63
2021/05/09 00:42:10;;;;;;;9.02;5.40;;;10.50;99.90;;;;;;5033546;28;20088;-63
2021/05/09 00:44:35;;;;;;;8.85;5.22;;;10.40;99.90;;;;;;5015846;28;20033;-63
2021/05/09 00:47:09;;;;;;;11.68;5.35;;;10.10;99.90;;;;;;5033569;28;20087;-64
2021/05/09 00:49:36;;;;;;;10.85;5.80;;;10.00;99.90;;;;;;5033458;28;20033;-64
2021/05/09 00:52:05;;;;;;;9.40;5.60;;;9.90;99.90;;;;;;5033377;28;20045;-63
2021/05/09 00:54:33;;;;;;;11.32;6.57;;;10.00;99.90;;;;;;5033265;28;20037;-63
2021/05/09 00:57:01;;;;;;;11.68;6.97;;;10.50;99.90;;;;;;5033136;28;20478;-64
2021/05/09 00:59:29;;;;;;;12.75;7.45;;;10.60;99.90;;;;;;5033544;28;20038;-63
2021/05/09 01:01:56;;;;;;;10.55;7.28;;;10.70;99.90;;;;;;5015602;28;20100;-63
2021/05/09 01:04:22;;;;;;;10.52;5.93;;;10.80;99.90;;;;;;5031161;28;20037;-63
2021/05/09 01:06:48;;;;;;;12.75;6.80;;;10.80;99.90;;;;;;5033256;28;20052;-63
2021/05/09 01:09:14;;;;;;;10.75;6.30;;;10.90;99.90;;;;;;5015205;28;20380;-63
2021/05/09 01:11:43;;;;;;;9.88;6.43;;;11.00;99.90;;;;;;5033053;28;20116;-64
2021/05/09 01:14:09;;;;;;;9.43;5.78;;;11.00;99.90;;;;;;5033072;28;20038;-64
2021/05/09 01:16:35;;;;;;;9.93;5.93;;;11.10;99.90;;;;;;5015476;28;20069;-64
2021/05/09 01:19:01;;;;;;;12.52;5.60;;;10.60;99.90;;;;;;5033071;28;20107;-63
2021/05/09 01:21:27;;;;;;;13.27;6.22;;;10.40;99.90;;;;;;5032966;28;20030;-63
2021/05/09 01:23:53;;;;;;;9.40;5.70;;;10.50;99.90;;;;;;5032484;28;20049;-63
2021/05/09 01:26:19;;;;;;;8.15;5.13;;;10.60;99.90;;;;;;5032581;28;20036;-63
2021/05/09 01:28:45;;;;;;;7.38;4.82;;;10.70;99.90;;;;;;5033095;28;20116;-63
2021/05/09 01:31:12;;;;;;;6.72;4.43;;;10.80;99.90;;;;;;5032896;28;20488;-63
2021/05/09 01:33:37;;;;;;;7.55;4.72;;;11.00;99.90;;;;;;5032920;28;20532;-63
2021/05/09 01:36:04;;;;;;;6.50;4.50;;;11.00;99.90;;;;;;5032723;28;20038;-63
2021/05/09 01:38:30;;;;;;;10.50;4.70;;;11.10;99.90;;;;;;5014877;28;20095;-63
2021/05/09 01:40:55;;;;;;;6.70;4.32;;;11.20;99.90;;;;;;5032628;28;20359;-63
2021/05/09 01:43:21;;;;;;;7.55;4.07;;;11.20;99.90;;;;;;5032247;28;20429;-63
2021/05/09 01:45:47;;;;;;;8.88;4.75;;;11.10;99.90;;;;;;5032507;28;20064;-63
2021/05/09 01:48:13;;;;;;;6.25;4.30;;;11.10;99.90;;;;;;5014841;28;20112;-63
2021/05/09 01:50:39;;;;;;;7.50;4.32;;;11.10;99.90;;;;;;5032529;28;20030;-64
2021/05/09 01:53:05;;;;;;;8.52;3.95;;;11.10;99.90;;;;;;5032565;28;20033;-63
2021/05/09 01:55:31;;;;;;;5.82;3.53;;;11.20;99.90;;;;;;5032476;28;20421;-64
2021/05/09 01:57:57;;;;;;;5.50;3.53;;;11.20;99.90;;;;;;5014975;28;20037;-63
2021/05/09 02:00:24;;;;;;;6.97;4.00;;;11.20;99.90;;;;;;5032322;28;20509;-63
2021/05/09 02:02:50;;;;;;;9.88;3.88;;;11.10;99.90;;;;;;5014544;28;20128;-64
2021/05/09 02:05:17;;;;;;;7.40;4.60;;;11.20;99.90;;;;;;5032308;28;20108;-64
2021/05/09 02:07:43;;;;;;;8.40;5.18;;;11.30;99.90;;;;;;5032149;28;20041;-63
2021/05/09 02:10:11;;;;;;;7.28;4.20;;;11.30;99.90;;;;;;5030981;28;20094;-64
2021/05/09 02:12:37;;;;;;;9.23;5.10;;;11.30;99.90;;;;;;5014659;28;20026;-63
2021/05/09 02:15:06;;;;;;;7.97;4.78;;;11.30;99.90;;;;;;5032220;28;20070;-64
2021/05/09 02:17:32;;;;;;;8.10;4.80;;;11.20;99.90;;;;;;5032433;28;20033;-63
2021/05/09 02:19:57;;;;;;;6.32;4.35;;;11.20;99.90;;;;;;5030743;28;20112;-64
2021/05/09 02:22:23;;;;;;;9.05;4.32;;;11.20;99.90;;;;;;5031853;28;20470;-64
2021/05/09 02:24:49;;;;;;;9.18;4.75;;;11.20;99.90;;;;;;5032195;28;20038;-64
2021/05/09 02:27:15;;;;;;;8.48;4.85;;;11.20;99.90;;;;;;5031850;28;20382;-63
2021/05/09 02:29:41;;;;;;;8.57;4.57;;;11.20;99.90;;;;;;5032247;28;20067;-64
2021/05/09 02:32:07;;;;;;;7.72;5.18;;;11.20;99.90;;;;;;5031942;28;20108;-63
2021/05/09 02:34:33;;;;;;;8.43;5.30;;;11.20;99.90;;;;;;5014192;28;20061;-64
2021/05/09 02:36:59;;;;;;;7.40;5.10;;;11.20;99.90;;;;;;5014688;28;20040;-64
2021/05/09 02:39:25;;;;;;;8.45;5.28;;;11.00;99.90;;;;;;5032001;28;20111;-63
2021/05/09 02:41:51;;;;;;;10.40;5.47;;;10.90;99.90;;;;;;5032147;28;20049;-64
2021/05/09 02:44:16;;;;;;;9.20;5.80;;;10.80;99.90;;;;;;5031878;28;20041;-64
2021/05/09 02:46:42;;;;;;;11.52;6.55;;;10.80;99.90;;;;;;5031887;28;20175;-64
2021/05/09 02:49:08;;;;;;;9.43;5.60;;;10.90;99.90;;;;;;5031728;28;20026;-63
2021/05/09 02:51:34;;;;;;;9.52;5.28;;;10.80;99.90;;;;;;5031963;28;20060;-64
2021/05/09 02:54:00;;;;;;;9.35;5.50;;;10.90;99.90;;;;;;5031739;28;20095;-64
2021/05/09 02:56:26;;;;;;;6.70;4.82;;;10.90;99.90;;;;;;5014229;28;20483;-64
2021/05/09 02:58:52;;;;;;;8.07;5.00;;;10.90;99.90;;;;;;5031676;28;20033;-63
2021/05/09 03:01:18;;;;;;;10.90;5.35;;;10.80;99.90;;;;;;5031805;28;20037;-64
2021/05/09 03:03:44;;;;;;;8.13;5.07;;;10.60;99.90;;;;;;5014049;28;20038;-63
2021/05/09 03:06:10;;;;;;;8.93;4.35;;;10.70;99.90;;;;;;5014113;28;20043;-63
2021/05/09 03:08:35;;;;;;;10.30;5.57;;;10.70;99.90;;;;;;5031887;28;20025;-64
2021/05/09 03:11:02;;;;;;;7.95;5.03;;;10.50;99.90;;;;;;5031813;28;20040;-63
2021/05/09 03:13:30;;;;;;;8.38;4.90;;;10.30;99.90;;;;;;5014239;28;20038;-64
2021/05/09 03:15:57;;;;;;;11.68;5.18;;;10.10;99.90;;;;;;5014310;28;20528;-63
2021/05/09 03:18:23;;;;;;;8.48;5.72;;;10.10;99.90;;;;;;5031724;28;20040;-64
2021/05/09 03:20:49;;;;;;;10.65;5.03;;;10.20;99.90;;;;;;5031753;28;20034;-64
2021/05/09 03:23:14;;;;;;;10.80;5.70;;;10.20;99.90;;;;;;5031083;28;20393;-64
2021/05/09 03:25:40;;;;;;;9.65;5.68;;;9.90;99.90;;;;;;5031679;28;20033;-64
2021/05/09 03:28:06;;;;;;;8.73;5.38;;;9.80;99.90;;;;;;5034947;28;20032;-63
2021/05/09 03:30:32;;;;;;;7.40;5.20;;;9.80;99.90;;;;;;5017042;28;20049;-65
2021/05/09 03:32:58;;;;;;;8.82;5.72;;;9.90;99.90;;;;;;5035030;28;20052;-65
2021/05/09 03:35:23;;;;;;;9.43;5.57;;;10.00;99.90;;;;;;5034687;28;20021;-65
2021/05/09 03:37:50;;;;;;;11.57;5.32;;;10.00;99.90;;;;;;5034955;28;20092;-64
2021/05/09 03:40:16;;;;;;;8.77;5.38;;;9.90;99.90;;;;;;5034571;28;20406;-65
2021/05/09 03:42:42;;;;;;;8.88;5.53;;;9.90;99.90;;;;;;5017379;28;20034;-65
2021/05/09 03:45:09;;;;;;;8.48;5.38;;;10.00;99.90;;;;;;5016989;28;20040;-66
2021/05/09 03:47:36;;;;;;;11.13;5.53;;;10.10;99.90;;;;;;5033343;28;20382;-65
2021/05/09 03:50:03;;;;;;;7.93;5.25;;;10.20;99.90;;;;;;5034460;28;20049;-64
2021/05/09 03:52:28;;;;;;;8.75;5.55;;;10.30;99.90;;;;;;5034589;28;20116;-63
2021/05/09 03:54:54;;;;;;;8.98;5.38;;;10.30;99.90;;;;;;5034668;28;20124;-67
2021/05/09 03:57:20;;;;;;;8.73;5.43;;;10.30;99.90;;;;;;5034549;28;20037;-65
2021/05/09 03:59:46;;;;;;;12.02;6.10;;;10.20;99.90;;;;;;5034701;28;20611;-65
2021/05/09 04:02:12;;;;;;;8.27;4.75;;;10.20;99.90;;;;;;5034425;28;20414;-65
2021/05/09 04:04:38;;;;;;;8.25;5.18;;;10.10;99.90;;;;;;5016448;28;20037;-66
2021/05/09 04:07:04;;;;;;;8.20;5.03;;;10.20;99.90;;;;;;5034598;28;20109;-65
2021/05/09 04:09:30;;;;;;;8.75;5.30;;;10.10;99.90;;;;;;5034099;28;20487;-66
2021/05/09 04:11:56;;;;;;;9.50;5.55;;;10.10;99.90;;;;;;5034436;28;20030;-66
2021/05/09 04:14:21;;;;;;;7.05;4.47;;;10.30;99.90;;;;;;5034312;28;20034;-65
2021/05/09 04:16:47;;;;;;;9.43;5.72;;;10.50;99.90;;;;;;5034483;28;20386;-66
2021/05/09 04:19:13;;;;;;;7.97;4.85;;;10.50;99.90;;;;;;5034282;28;20033;-65
2021/05/09 04:21:40;;;;;;;11.38;5.53;;;10.30;99.90;;;;;;5016164;28;20031;-64
2021/05/09 04:24:08;;;;;;;8.90;5.68;;;10.40;99.90;;;;;;5016347;28;20035;-64
2021/05/09 04:26:34;;;;;;;8.60;5.25;;;10.40;99.90;;;;;;5034063;28;20478;-63
2021/05/09 04:29:00;;;;;;;10.25;5.55;;;10.50;99.90;;;;;;5034211;28;20037;-64
2021/05/09 04:31:25;;;;;;;11.10;5.35;;;10.50;99.90;;;;;;5033616;28;20091;-64
2021/05/09 04:33:51;;;;;;;7.55;4.57;;;10.40;99.90;;;;;;5033864;28;20454;-64
2021/05/09 04:36:17;;;;;;;9.93;5.10;;;10.50;99.90;;;;;;5016185;28;20056;-64
2021/05/09 04:38:43;;;;;;;10.07;5.20;;;10.20;99.90;;;;;;5033016;28;20048;-64
2021/05/09 04:41:08;;;;;;;10.82;4.95;;;10.50;99.90;;;;;;5033581;28;20029;-64
2021/05/09 04:43:36;;;;;;;7.95;4.85;;;10.50;99.90;;;;;;5033668;28;20540;-64
2021/05/09 04:46:01;;;;;;;10.57;4.47;;;10.50;99.90;;;;;;5016048;28;20025;-64
2021/05/09 04:48:27;;;;;;;7.03;4.40;;;10.70;99.90;;;;;;5033625;28;20386;-65
2021/05/09 04:50:53;;;;;;;8.52;5.35;;;10.80;99.90;;;;;;4999264;28;20044;-65
2021/05/09 04:53:37;;;;;;;7.35;5.18;;;11.00;99.90;;;;;;5033537;28;20037;-65
2021/05/09 04:56:06;;;;;;;7.05;4.70;;;11.20;99.90;;;;;;5033410;28;20041;-67
2021/05/09 04:58:34;;;;;;;6.93;4.82;;;11.00;99.90;;;;;;5016046;28;20037;-68
2021/05/09 05:01:02;;;;;;;10.40;5.68;;;10.90;99.90;;;;;;5033008;28;20036;-68
2021/05/09 05:03:31;;;;;;;10.10;5.35;;;10.80;99.90;;;;;;4999905;28;20037;-68
2021/05/09 05:05:57;;;;;;;9.77;5.20;;;10.90;99.90;;;;;;5015599;28;20039;-68
2021/05/09 05:08:23;;;;;;;8.25;5.18;;;11.10;99.90;;;;;;5033334;28;20104;-68
2021/05/09 05:10:50;;;;;;;9.38;4.82;;;11.30;99.90;;;;;;5033105;28;20069;-69
2021/05/09 05:13:26;;;;;;;8.38;4.82;;;11.50;99.90;;;;;;5033376;28;20479;-68
2021/05/09 05:15:57;;;;;;;11.18;5.40;;;11.60;99.90;;;;;;5019499;28;20505;-68
2021/05/09 05:18:25;;;;;;;7.90;5.22;;;11.80;99.90;;;;;;5032900;28;20061;-68
2021/05/09 05:20:55;;;;;;;12.52;5.30;;;11.80;99.90;;;;;;5033132;28;20441;-67
2021/05/09 05:23:21;;;;;;;9.00;4.35;;;11.90;99.90;;;;;;5032514;28;20095;-67
2021/05/09 05:25:49;;;;;;;7.78;4.85;;;11.90;99.90;;;;;;5033111;28;20040;-67
2021/05/09 05:28:15;;;;;;;6.22;4.05;;;12.00;99.90;;;;;;5032929;28;20047;-66
2021/05/09 05:30:44;;;;;;;7.20;4.25;;;11.90;99.90;;;;;;5032624;28;20080;-66
2021/05/09 05:33:30;;;;;;;7.57;4.95;;;12.10;99.90;;;;;;5030905;28;20029;-66
2021/05/09 05:35:59;;;;;;;11.50;4.40;;;12.10;99.90;;;;;;5032662;28;20041;-67
2021/05/09 05:38:28;;;;;;;6.97;4.20;;;12.30;99.90;;;;;;5014933;28;20065;-67
2021/05/09 05:40:56;;;;;;;7.82;4.22;;;12.40;99.90;;;;;;5013665;28;20144;-66
2021/05/09 05:43:28;;;;;;;8.07;4.40;;;12.50;99.90;;;;;;5032485;28;20036;-66
2021/05/09 05:45:57;;;;;;;11.05;4.78;;;12.60;99.90;;;;;;5032593;28;20036;-66
2021/05/09 05:48:27;;;;;;;8.20;4.05;;;12.70;99.90;;;;;;5032211;28;20045;-66
2021/05/09 05:50:54;;;;;;;6.60;3.95;;;12.80;99.90;;;;;;5032129;28;20037;-64
2021/05/09 05:53:22;;;;;;;7.60;4.22;;;12.90;99.90;;;;;;5032563;28;20069;-65
2021/05/09 05:55:49;;;;;;;6.22;3.63;;;13.00;99.90;;;;;;5032548;28;20035;-65
2021/05/09 05:58:15;;;;;;;6.45;3.78;;;13.10;99.90;;;;;;5032622;28;20079;-65
2021/05/09 06:00:42;;;;;;;7.60;3.97;;;13.20;99.90;;;;;;5032097;28;20080;-65
2021/05/09 06:03:08;;;;;;;15.93;8.48;;;13.30;99.90;;;;;;5032365;28;20080;-65
2021/05/09 06:05:34;;;;;;;7.00;4.35;;;13.40;99.90;;;;;;5030864;28;20096;-65
2021/05/09 06:07:59;;;;;;;10.82;5.22;;;13.50;99.90;;;;;;5014259;28;20524;-67
2021/05/09 06:10:25;;;;;;;5.47;3.53;;;13.60;99.90;;;;;;5032138;28;20033;-66
2021/05/09 06:12:55;;;;;;;5.53;3.30;;;13.70;99.90;;;;;;5032385;28;20029;-66
2021/05/09 06:15:21;;;;;;;7.00;4.05;;;13.90;99.90;;;;;;5032354;28;20033;-66
2021/05/09 06:17:47;;;;;;;6.85;3.80;;;13.90;99.90;;;;;;5032203;28;20386;-64
2021/05/09 06:20:13;;;;;;;6.63;3.45;;;13.90;99.90;;;;;;5032037;28;20029;-66
2021/05/09 06:22:39;;;;;;;5.45;3.25;;;14.00;99.90;;;;;;5031709;28;20053;-66
2021/05/09 06:25:10;;;;;;;7.25;4.20;;;14.00;99.90;;;;;;5032180;28;20125;-66
2021/05/09 06:27:36;;;;;;;7.47;3.58;;;14.10;99.90;;;;;;5030833;28;20022;-66
2021/05/09 06:30:03;;;;;;;6.88;3.67;;;14.10;99.90;;;;;;5032240;28;20030;-65
2021/05/09 06:32:29;;;;;;;5.00;3.38;;;14.10;99.90;;;;;;5031661;28;20037;-67
2021/05/09 06:34:55;;;;;;;8.73;3.97;;;14.20;99.90;;;;;;5031977;28;20044;-66
2021/05/09 06:37:21;;;;;;;5.53;3.70;;;14.30;99.90;;;;;;5032065;28;20021;-65
2021/05/09 06:39:47;;;;;;;6.57;3.97;;;14.30;99.90;;;;;;5031962;28;20040;-66
2021/05/09 06:42:12;;;;;;;8.52;3.50;;;14.30;99.90;;;;;;5032025;28;20037;-67
2021/05/09 06:44:43;;;;;;;7.78;4.00;;;14.40;99.90;;;;;;5031901;28;20086;-66
2021/05/09 06:47:09;;;;;;;6.10;3.30;;;14.40;99.90;;;;;;5014207;28;20132;-68
2021/05/09 06:49:35;;;;;;;8.13;4.32;;;14.50;99.90;;;;;;5031745;28;20194;-66
2021/05/09 06:52:01;;;;;;;9.30;3.17;;;14.60;99.90;;;;;;5031905;28;20037;-66
2021/05/09 06:54:27;;;;;;;7.47;2.90;;;14.70;99.90;;;;;;5031769;28;20513;-66
2021/05/09 06:56:54;;;;;;;8.05;2.58;;;14.80;99.90;;;;;;5030514;28;20033;-65
2021/05/09 06:59:20;;;;;;;4.38;2.58;;;14.90;99.90;;;;;;5031599;28;20057;-65
2021/05/09 07:01:48;;;;;;;4.40;2.38;;;15.00;99.90;;;;;;5032903;28;20101;-67
2021/05/09 07:04:14;;;;;;;4.93;2.70;;;15.20;99.90;;;;;;5035394;28;20034;-65
2021/05/09 07:06:40;;;;;;;4.53;2.00;;;15.40;99.90;;;;;;5035180;28;20026;-65
2021/05/09 07:09:09;;;;;;;2.97;2.03;;;15.40;99.90;;;;;;5035588;28;20036;-67
2021/05/09 07:11:35;;;;;;;3.47;2.28;;;15.50;99.90;;;;;;5035322;28;20061;-66
2021/05/09 07:14:00;;;;;;;3.95;2.20;;;15.70;99.90;;;;;;5035466;28;20478;-67
2021/05/09 07:16:27;;;;;;;5.90;2.28;;;15.70;99.90;;;;;;5035397;28;20036;-67
2021/05/09 07:18:53;;;;;;;4.85;2.22;;;15.80;99.90;;;;;;5035393;28;20060;-67
2021/05/09 07:21:25;;;;;;;4.45;2.65;;;15.80;99.90;;;;;;5035182;28;20566;-66
2021/05/09 07:23:51;;;;;;;4.60;1.92;;;15.90;99.90;;;;;;5016923;28;20104;-66
2021/05/09 07:26:17;;;;;;;3.65;2.25;;;16.00;99.90;;;;;;5034782;28;20126;-66
2021/05/09 07:28:43;;;;;;;5.07;2.03;;;16.10;99.90;;;;;;5034290;28;20030;-66
2021/05/09 07:31:09;;;;;;;3.88;2.17;;;16.30;99.90;;;;;;5034799;28;20152;-66
2021/05/09 07:33:35;;;;;;;5.38;2.42;;;16.40;99.90;;;;;;5034776;28;20116;-66
2021/05/09 07:36:01;;;;;;;4.55;2.33;;;16.70;99.90;;;;;;5034997;28;20429;-66
2021/05/09 07:38:26;;;;;;;4.35;2.13;;;16.80;99.90;;;;;;5034540;28;20033;-67
2021/05/09 07:40:52;;;;;;;5.25;2.20;;;16.90;99.90;;;;;;5034708;28;20163;-67
2021/05/09 07:43:19;;;;;;;4.07;1.80;;;17.00;99.90;;;;;;5034715;28;20382;-66
2021/05/09 07:45:45;;;;;;;5.50;2.42;;;17.10;99.90;;;;;;5034394;28;20038;-66
2021/05/09 07:48:11;;;;;;;5.32;2.50;;;17.30;99.90;;;;;;5034207;28;20532;-67
2021/05/09 07:50:39;;;;;;;5.95;2.40;;;17.30;99.90;;;;;;5033541;28;20045;-66
2021/05/09 07:53:05;;;;;;;4.90;2.50;;;17.50;99.90;;;;;;5033974;28;20029;-66
2021/05/09 07:55:31;;;;;;;6.30;2.47;;;17.70;99.90;;;;;;5022792;28;20049;-65
2021/05/09 07:57:57;;;;;;;5.72;2.35;;;17.90;99.90;;;;;;5032790;28;20029;-65
2021/05/09 08:00:24;;;;;;;4.75;1.95;;;18.10;99.90;;;;;;5033311;28;20044;-66
2021/05/09 08:02:50;;;;;;;2.38;1.25;;;18.30;99.90;;;;;;5033092;28;20041;-66
2021/05/09 08:05:19;;;;;;;7.25;1.20;;;18.40;99.90;;;;;;5016208;28;20486;-67
2021/05/09 08:08:03;;;;;;;2.20;1.38;;;18.70;99.80;;;;;;5033099;28;20708;-64
2021/05/09 08:10:38;;;;;;;1.13;0.73;;;18.90;99.30;;;;;;5032885;28;20030;-65
2021/05/09 08:13:06;;;;;;;1.95;1.00;;;19.10;98.10;;;;;;5031564;28;20033;-76
2021/05/09 08:15:32;;;;;;;1.52;0.90;;;19.30;98.40;;;;;;5034325;28;20037;-67
2021/05/09 08:17:59;;;;;;;2.45;0.90;;;19.40;97.50;;;;;;5033789;28;20033;-65
2021/05/09 08:20:25;;;;;;;4.32;1.10;;;19.50;97.20;;;;;;5034105;28;20030;-65
2021/05/09 08:22:51;;;;;;;1.90;1.00;;;19.70;97.10;;;;;;5021606;28;20084;-65
2021/05/09 08:25:18;;;;;;;2.50;1.10;;;19.80;95.80;;;;;;5014294;28;20037;-66
2021/05/09 08:27:45;;;;;;;3.67;1.20;;;20.10;95.30;;;;;;5014208;28;20030;-67
2021/05/09 08:30:16;;;;;;;2.05;1.13;;;20.20;95.20;;;;;;4996948;28;20550;-67
2021/05/09 08:32:45;;;;;;;2.13;0.93;;;20.20;96.30;;;;;;5000016;28;20577;-66
2021/05/09 08:35:12;;;;;;;1.75;0.90;;;20.30;95.80;;;;;;5014170;28;20030;-66
2021/05/09 08:37:39;;;;;;;2.00;0.93;;;20.30;95.60;;;;;;5013724;28;20080;-66
2021/05/09 08:40:08;;;;;;;2.05;0.90;;;20.50;94.80;;;;;;5014053;28;20044;-66
2021/05/09 08:42:34;;;;;;;1.73;0.80;;;20.80;93.40;;;;;;5013896;28;20026;-66
2021/05/09 08:45:00;;;;;;;3.25;0.93;;;20.90;94.40;;;;;;4996406;28;20045;-66
2021/05/09 08:47:42;;;;;;;3.15;1.20;;;20.80;94.20;;;;;;5013920;28;20049;-67
2021/05/09 08:50:20;;;;;;;1.85;1.10;;;20.90;93.30;;;;;;5013326;28;20029;-65
2021/05/09 08:52:52;;;;;;;1.92;1.00;;;21.20;93.50;;;;;;5013628;28;20026;-66
2021/05/09 08:55:28;;;;;;;1.88;0.98;;;21.30;93.70;;;;;;5012677;28;20032;-66
2021/05/09 08:57:57;;;;;;;2.20;1.02;;;21.30;93.60;;;;;;5013767;28;20034;-65
2021/05/09 09:00:29;;;;;;;3.65;0.80;;;21.30;91.90;;;;;;5013741;28;20060;-66
2021/05/09 09:03:02;;;;;;;3.42;0.88;;;21.40;92.80;;;;;;4995714;28;20494;-67
2021/05/09 09:05:40;;;;;;;4.03;0.90;;;21.60;90.90;;;;;;5013645;28;20117;-66
2021/05/09 09:08:17;;;;;;;4.63;1.20;;;21.70;92.50;;;;;;4997389;28;20041;-66
2021/05/09 09:10:48;;;;;;;1.33;0.75;;;21.70;91.80;;;;;;5013685;28;20121;-68
2021/05/09 09:13:25;;;;;;;3.50;0.95;;;21.70;92.20;;;;;;4979693;28;20056;-65
2021/05/09 09:16:08;;;;;;;1.90;0.98;;;21.80;92.00;;;;;;5013542;28;20046;-66
2021/05/09 09:18:41;;;;;;;2.60;0.80;;;21.90;91.60;;;;;;5013480;28;20038;-67
2021/05/09 09:21:29;;;;;;;2.03;1.00;;;22.10;91.00;;;;;;5013402;28;20034;-67
2021/05/09 09:24:12;;;;;;;3.03;1.10;;;22.20;91.40;;;;;;5029477;28;20057;-67
2021/05/09 09:26:52;;;;;;;2.17;1.17;;;22.30;90.60;;;;;;5015294;28;20049;-66
2021/05/09 09:29:38;;;;;;;2.35;0.90;;;22.50;91.10;;;;;;5014995;28;20390;-67
2021/05/09 09:32:08;;;;;;;1.40;0.80;;;22.60;89.80;;;;;;5015341;28;20060;-67
2021/05/09 09:34:44;;;;;;;1.77;0.90;;;22.80;89.60;;;;;;5031330;28;20025;-67
2021/05/09 09:37:12;;;;;;;2.38;0.80;;;22.90;87.00;;;;;;5031819;28;20116;-65
2021/05/09 09:39:59;;;;;;;1.83;0.93;;;23.10;89.10;;;;;;5032460;28;20095;-67
2021/05/09 09:42:45;;;;;;;3.75;1.50;;;23.20;86.90;;;;;;5031638;28;20076;-66
2021/05/09 09:45:28;;;;;;;1.70;0.88;;;23.50;85.40;;;;;;5032715;28;20120;-67
2021/05/09 09:48:00;;;;;;;2.20;0.90;;;23.80;82.80;;;;;;5032150;28;20072;-67
2021/05/09 09:50:42;;;;;;;1.30;0.88;;;23.90;83.90;;;;;;5032518;28;20034;-65
2021/05/09 09:53:44;;;;;;;2.33;0.75;;;24.10;83.70;;;;;;5032710;28;20065;-65
2021/05/09 09:56:14;;;;;;;2.53;1.00;;;24.50;81.30;;;;;;5032181;28;20025;-66
2021/05/09 09:58:57;;;;;;;2.63;0.65;;;24.70;79.40;;;;;;5023259;28;20049;-67
2021/05/09 10:01:32;;;;;;;1.40;0.75;;;24.90;78.90;;;;;;5011590;28;20033;-65
2021/05/09 10:04:09;;;;;;;2.92;1.40;;;24.90;81.60;;;;;;5012230;28;20534;-68
2021/05/09 10:06:38;;;;;;;2.03;0.80;;;25.00;80.00;;;;;;5012530;28;20029;-68
2021/05/09 10:09:05;;;;;;;2.05;0.70;;;25.30;76.90;;;;;;5012222;28;20026;-67
2021/05/09 10:11:32;;;;;;;3.35;0.85;;;25.10;77.80;;;;;;4975070;28;20356;-68
2021/05/09 10:13:59;;;;;;;1.80;0.70;;;25.30;81.10;;;;;;5004290;28;20080;-68
2021/05/09 10:16:31;;;;;;;3.50;1.00;;;25.30;78.60;;;;;;5011449;28;20057;-46
2021/05/09 10:19:04;;;;;;;2.17;0.80;;;25.30;75.80;;;;;;5012503;28;20037;-52
2021/05/09 10:21:36;;;;;;;2.47;1.00;;;25.50;74.80;;;;;;5012509;28;20040;-55
2021/05/09 10:24:18;;;;;;;2.25;1.30;;;25.70;73.70;;;;;;5030268;28;20054;-52
2021/05/09 10:26:53;;;;;;;4.03;1.00;;;26.00;73.40;;;;;;5032289;28;20083;-57
2021/05/09 10:29:45;;;;;;;1.42;0.68;;;26.20;70.20;;;;;;5032184;28;20037;-52
2021/05/09 10:32:19;;;;;;;4.38;0.88;;;26.30;73.10;;;;;;5031954;28;20033;-55
2021/05/09 10:35:09;;;;;;;2.08;0.90;;;26.40;69.20;;;;;;5031921;28;20476;-57
2021/05/09 10:37:35;;;;;;;1.27;0.82;;;26.60;69.90;;;;;;5036379;28;20444;-54
2021/05/09 10:40:19;;;;;;;2.33;0.90;;;26.50;65.60;;;;;;5036010;28;20038;-55
2021/05/09 10:43:01;;;;;;;1.80;0.90;;;26.50;65.50;;;;;;5035576;28;20033;-53
2021/05/09 10:45:47;;;;;;;2.00;0.82;;;26.80;68.10;;;;;;5035794;28;20528;-50
2021/05/09 10:48:19;;;;;;;4.63;0.95;;;26.90;62.50;;;;;;5025149;28;20041;-52
2021/05/09 10:50:56;;;;;;;2.83;0.80;;;26.70;62.40;;;;;;5035726;28;20501;-54
2021/05/09 10:53:34;;;;;;;1.67;1.00;;;26.90;63.00;;;;;;5035987;28;20030;-47
2021/05/09 10:56:02;;;;;;;1.73;0.73;;;26.70;62.20;;;;;;5035606;28;20029;-52
2021/05/09 10:58:49;;;;;;;1.45;0.75;;;26.90;62.50;;;;;;5035992;28;20040;-54
2021/05/09 11:01:25;;;;;;;0.95;0.80;;;27.00;63.10;;;;;;5035553;28;20080;-49
2021/05/09 11:04:27;;;;;;;6.88;1.08;;;27.20;64.30;;;;;;5035606;28;20386;-50
2021/05/09 11:06:53;;;;;;;1.98;1.00;;;27.20;62.60;;;;;;5032104;28;20434;-52
2021/05/09 11:09:29;;;;;;;4.72;1.15;;;27.40;59.90;;;;;;5035606;28;20068;-52
2021/05/09 11:12:00;;;;;;;2.13;0.90;;;27.40;60.90;;;;;;5035268;28;20091;-55
2021/05/09 11:14:26;;;;;;;1.58;0.80;;;27.40;60.30;;;;;;5035665;28;20035;-55
2021/05/09 11:17:03;;;;;;;1.83;0.98;;;27.40;60.50;;;;;;5035376;28;20033;-53
2021/05/09 11:19:41;;;;;;;1.90;0.90;;;27.50;58.90;;;;;;5035197;28;20025;-52
2021/05/09 11:22:09;;;;;;;2.15;1.10;;;27.60;59.20;;;;;;5034744;28;20056;-52
2021/05/09 11:24:37;;;;;;;1.48;0.77;;;27.50;58.60;;;;;;5034884;28;20037;-56
2021/05/09 11:27:12;;;;;;;1.73;0.77;;;27.70;58.70;;;;;;5033683;28;20513;-50
2021/05/09 11:29:41;;;;;;;2.50;0.93;;;27.70;56.90;;;;;;5035356;28;20041;-52
2021/05/09 11:32:15;;;;;;;1.83;0.88;;;27.90;57.20;;;;;;5034797;28;20029;-51
2021/05/09 11:35:02;;;;;;;2.53;0.70;;;28.10;56.80;;;;;;5035268;28;20033;-51
2021/05/09 11:37:40;;;;;;;1.55;0.70;;;28.00;55.80;;;;;;5034855;28;20032;-67
2021/05/09 11:40:10;;;;;;;2.75;0.88;;;28.40;54.80;;;;;;5017127;28;20046;-66
2021/05/09 11:42:37;;;;;;;2.60;1.13;;;28.30;51.90;;;;;;5033920;28;20032;-67
2021/05/09 11:45:03;;;;;;;3.38;0.90;;;28.50;51.90;;;;;;5034811;28;20288;-67
2021/05/09 11:47:33;;;;;;;2.83;1.00;;;28.50;53.30;;;;;;5034245;28;20104;-67
2021/05/09 11:50:08;;;;;;;4.80;0.87;;;28.80;53.40;;;;;;5034694;28;20405;-71
2021/05/09 11:52:43;;;;;;;1.77;0.93;;;28.90;52.00;;;;;;5033402;28;20292;-67
2021/05/09 11:55:14;;;;;;;2.55;1.00;;;29.00;51.80;;;;;;5016687;28;20056;-67
2021/05/09 11:57:40;;;;;;;1.85;1.00;;;28.90;51.10;;;;;;5034750;28;20061;-67
2021/05/09 12:00:08;;;;;;;1.45;0.70;;;29.00;50.90;;;;;;5034611;28;20073;-67
2021/05/09 12:02:44;;;;;;;1.77;1.13;;;29.00;50.30;;;;;;5034532;28;20033;-66
2021/05/09 12:05:18;;;;;;;2.38;0.95;;;29.10;50.90;;;;;;5034220;28;20030;-67
2021/05/09 12:07:54;;;;;;;1.98;0.90;;;29.00;51.70;;;;;;5016218;28;20040;-66
2021/05/09 12:10:31;;;;;;;1.98;0.90;;;29.00;50.50;;;;;;5034314;28;20026;-67
2021/05/09 12:13:06;;;;;;;2.05;0.75;;;29.20;50.80;;;;;;5016229;28;20121;-67
2021/05/09 12:15:43;;;;;;;1.05;0.70;;;29.30;50.50;;;;;;5032998;28;20029;-66
2021/05/09 12:18:11;;;;;;;2.53;0.98;;;29.50;50.30;;;;;;5032991;28;20029;-67
2021/05/09 12:20:44;;;;;;;3.42;0.90;;;29.50;49.40;;;;;;5034334;28;20471;-67
2021/05/09 12:23:16;;;;;;;1.75;1.02;;;29.70;50.80;;;;;;5033760;28;20105;-67
2021/05/09 12:25:45;;;;;;;2.13;0.88;;;29.80;49.80;;;;;;5034109;28;20104;-67
2021/05/09 12:28:13;;;;;;;4.00;1.40;;;29.60;49.80;;;;;;5033733;28;20106;-67
2021/05/09 12:30:41;;;;;;;3.17;1.15;;;29.50;50.30;;;;;;5033877;28;20084;-66
2021/05/09 12:33:07;;;;;;;1.77;0.95;;;29.20;50.00;;;;;;5033664;28;20033;-67
2021/05/09 12:35:54;;;;;;;1.48;0.65;;;29.20;49.90;;;;;;5032706;28;20037;-67
2021/05/09 12:38:29;;;;;;;2.13;0.70;;;29.10;49.00;;;;;;5016317;28;20040;-67
2021/05/09 12:41:08;;;;;;;4.28;1.00;;;29.00;49.30;;;;;;5033907;28;20470;-69
2021/05/09 12:43:54;;;;;;;2.65;0.80;;;28.80;48.70;;;;;;5033866;28;20057;-68
2021/05/09 12:46:42;;;;;;;1.15;0.70;;;28.90;49.10;;;;;;5033661;28;20033;-68
2021/05/09 12:49:13;;;;;;;1.50;0.90;;;28.90;48.40;;;;;;5033379;28;20056;-67
2021/05/09 12:52:03;;;;;;;2.13;0.73;;;28.90;48.50;;;;;;5033592;28;20382;-68
2021/05/09 12:54:46;;;;;;;2.92;0.85;;;28.80;49.00;;;;;;5033513;28;20155;-67
2021/05/09 12:57:19;;;;;;;2.10;0.88;;;28.80;48.40;;;;;;5032065;28;20029;-67